sensor_id;sensor_type;location;lat;lon;timestamp;P1;durP1;ratioP1;P2;durP2;ratioP2
85133;SDS011;75590;42.690;23.356;2024-02-23T00:00:31;13.07;;;6.13;;
85133;SDS011;75590;42.690;23.356;2024-02-23T00:02:56;11.05;;;6.35;;
85133;SDS011;75590;42.690;23.356;2024-02-23T00:05:23;13.60;;;6.38;;
85133;SDS011;75590;42.690;23.356;2024-02-23T00:07:49;11.13;;;5.90;;
85133;SDS011;75590;42.690;23.356;2024-02-23T00:10:14;13.30;;;6.45;;
85133;SDS011;75590;42.690;23.356;2024-02-23T00:12:40;11.23;;;5.53;;
85133;SDS011;75590;42.690;23.356;2024-02-23T00:15:06;10.23;;;6.65;;
85133;SDS011;75590;42.690;23.356;2024-02-23T00:17:32;11.68;;;5.85;;
85133;SDS011;75590;42.690;23.356;2024-02-23T00:19:58;11.23;;;6.15;;
85133;SDS011;75590;42.690;23.356;2024-02-23T00:22:23;8.38;;;5.57;;
85133;SDS011;75590;42.690;23.356;2024-02-23T00:24:50;11.63;;;5.20;;
85133;SDS011;75590;42.690;23.356;2024-02-23T00:27:16;8.63;;;5.28;;
85133;SDS011;75590;42.690;23.356;2024-02-23T00:29:41;10.63;;;6.13;;
85133;SDS011;75590;42.690;23.356;2024-02-23T00:32:07;12.02;;;6.35;;
85133;SDS011;75590;42.690;23.356;2024-02-23T00:34:32;10.23;;;5.18;;
85133;SDS011;75590;42.690;23.356;2024-02-23T00:36:58;9.05;;;5.47;;
85133;SDS011;75590;42.690;23.356;2024-02-23T00:39:24;9.50;;;5.45;;
85133;SDS011;75590;42.690;23.356;2024-02-23T00:41:49;9.02;;;4.68;;
85133;SDS011;75590;42.690;23.356;2024-02-23T00:44:18;9.35;;;5.05;;
85133;SDS011;75590;42.690;23.356;2024-02-23T00:46:46;7.40;;;5.05;;
85133;SDS011;75590;42.690;23.356;2024-02-23T00:49:11;9.00;;;5.53;;
85133;SDS011;75590;42.690;23.356;2024-02-23T00:51:37;8.02;;;4.90;;
85133;SDS011;75590;42.690;23.356;2024-02-23T00:54:02;9.48;;;5.53;;
85133;SDS011;75590;42.690;23.356;2024-02-23T00:56:28;9.43;;;5.75;;
85133;SDS011;75590;42.690;23.356;2024-02-23T00:58:53;7.93;;;5.03;;
85133;SDS011;75590;42.690;23.356;2024-02-23T01:01:19;11.75;;;5.43;;
85133;SDS011;75590;42.690;23.356;2024-02-23T01:03:44;10.70;;;5.38;;
85133;SDS011;75590;42.690;23.356;2024-02-23T01:06:10;10.10;;;6.07;;
85133;SDS011;75590;42.690;23.356;2024-02-23T01:08:35;8.68;;;5.47;;
85133;SDS011;75590;42.690;23.356;2024-02-23T01:11:01;6.80;;;4.28;;
85133;SDS011;75590;42.690;23.356;2024-02-23T01:13:26;8.88;;;5.15;;
85133;SDS011;75590;42.690;23.356;2024-02-23T01:15:52;10.93;;;5.82;;
85133;SDS011;75590;42.690;23.356;2024-02-23T01:18:19;8.90;;;4.47;;
85133;SDS011;75590;42.690;23.356;2024-02-23T01:20:44;9.20;;;5.00;;
85133;SDS011;75590;42.690;23.356;2024-02-23T01:23:10;9.68;;;6.00;;
85133;SDS011;75590;42.690;23.356;2024-02-23T01:25:35;9.85;;;4.97;;
85133;SDS011;75590;42.690;23.356;2024-02-23T01:28:01;7.22;;;3.40;;
85133;SDS011;75590;42.690;23.356;2024-02-23T01:30:26;10.88;;;4.45;;
85133;SDS011;75590;42.690;23.356;2024-02-23T01:32:52;8.95;;;4.35;;
85133;SDS011;75590;42.690;23.356;2024-02-23T01:35:17;7.88;;;4.53;;
85133;SDS011;75590;42.690;23.356;2024-02-23T01:37:43;8.40;;;4.82;;
85133;SDS011;75590;42.690;23.356;2024-02-23T01:40:09;6.90;;;4.70;;
85133;SDS011;75590;42.690;23.356;2024-02-23T01:42:34;8.93;;;4.40;;
85133;SDS011;75590;42.690;23.356;2024-02-23T01:45:00;11.43;;;5.70;;
85133;SDS011;75590;42.690;23.356;2024-02-23T01:47:27;9.57;;;4.88;;
85133;SDS011;75590;42.690;23.356;2024-02-23T01:49:53;9.10;;;5.13;;
85133;SDS011;75590;42.690;23.356;2024-02-23T01:52:19;8.88;;;5.85;;
85133;SDS011;75590;42.690;23.356;2024-02-23T01:54:45;9.43;;;4.95;;
85133;SDS011;75590;42.690;23.356;2024-02-23T01:57:11;8.75;;;4.25;;
85133;SDS011;75590;42.690;23.356;2024-02-23T01:59:37;8.13;;;4.78;;
85133;SDS011;75590;42.690;23.356;2024-02-23T02:02:03;8.07;;;5.03;;
85133;SDS011;75590;42.690;23.356;2024-02-23T02:04:29;11.38;;;5.88;;
85133;SDS011;75590;42.690;23.356;2024-02-23T02:06:55;9.85;;;5.43;;
85133;SDS011;75590;42.690;23.356;2024-02-23T02:09:20;7.93;;;5.18;;
85133;SDS011;75590;42.690;23.356;2024-02-23T02:11:46;11.05;;;6.75;;
85133;SDS011;75590;42.690;23.356;2024-02-23T02:14:12;9.98;;;6.03;;
85133;SDS011;75590;42.690;23.356;2024-02-23T02:16:38;8.15;;;5.15;;
85133;SDS011;75590;42.690;23.356;2024-02-23T02:19:04;9.95;;;4.57;;
85133;SDS011;75590;42.690;23.356;2024-02-23T02:21:30;7.95;;;5.00;;
85133;SDS011;75590;42.690;23.356;2024-02-23T02:23:56;7.00;;;4.32;;
85133;SDS011;75590;42.690;23.356;2024-02-23T02:26:22;9.30;;;5.25;;
85133;SDS011;75590;42.690;23.356;2024-02-23T02:28:47;8.80;;;5.43;;
85133;SDS011;75590;42.690;23.356;2024-02-23T02:31:13;6.85;;;4.80;;
85133;SDS011;75590;42.690;23.356;2024-02-23T02:33:40;10.43;;;6.22;;
85133;SDS011;75590;42.690;23.356;2024-02-23T02:36:05;9.25;;;4.68;;
85133;SDS011;75590;42.690;23.356;2024-02-23T02:38:31;11.65;;;6.18;;
85133;SDS011;75590;42.690;23.356;2024-02-23T02:40:58;13.90;;;6.18;;
85133;SDS011;75590;42.690;23.356;2024-02-23T02:43:25;11.45;;;5.40;;
85133;SDS011;75590;42.690;23.356;2024-02-23T02:45:51;11.00;;;5.13;;
85133;SDS011;75590;42.690;23.356;2024-02-23T02:48:17;6.82;;;4.90;;
85133;SDS011;75590;42.690;23.356;2024-02-23T02:50:42;12.95;;;6.50;;
85133;SDS011;75590;42.690;23.356;2024-02-23T02:53:09;18.05;;;7.65;;
85133;SDS011;75590;42.690;23.356;2024-02-23T02:55:35;13.52;;;6.57;;
85133;SDS011;75590;42.690;23.356;2024-02-23T02:58:01;11.43;;;6.32;;
85133;SDS011;75590;42.690;23.356;2024-02-23T03:00:26;10.32;;;5.38;;
85133;SDS011;75590;42.690;23.356;2024-02-23T03:02:52;10.48;;;6.00;;
85133;SDS011;75590;42.690;23.356;2024-02-23T03:05:18;13.82;;;6.68;;
85133;SDS011;75590;42.690;23.356;2024-02-23T03:07:43;11.20;;;5.75;;
85133;SDS011;75590;42.690;23.356;2024-02-23T03:10:09;12.68;;;6.00;;
85133;SDS011;75590;42.690;23.356;2024-02-23T03:12:34;9.75;;;5.40;;
85133;SDS011;75590;42.690;23.356;2024-02-23T03:15:00;11.60;;;5.50;;
85133;SDS011;75590;42.690;23.356;2024-02-23T03:17:27;12.13;;;6.85;;
85133;SDS011;75590;42.690;23.356;2024-02-23T03:19:53;11.77;;;6.03;;
85133;SDS011;75590;42.690;23.356;2024-02-23T03:22:18;11.10;;;5.07;;
85133;SDS011;75590;42.690;23.356;2024-02-23T03:24:44;10.82;;;5.70;;
85133;SDS011;75590;42.690;23.356;2024-02-23T03:27:09;12.25;;;6.30;;
85133;SDS011;75590;42.690;23.356;2024-02-23T03:29:35;11.63;;;5.95;;
85133;SDS011;75590;42.690;23.356;2024-02-23T03:32:00;13.30;;;5.82;;
85133;SDS011;75590;42.690;23.356;2024-02-23T03:34:26;10.00;;;5.75;;
85133;SDS011;75590;42.690;23.356;2024-02-23T03:36:52;11.40;;;5.93;;
85133;SDS011;75590;42.690;23.356;2024-02-23T03:39:18;12.30;;;5.35;;
85133;SDS011;75590;42.690;23.356;2024-02-23T03:41:43;12.27;;;6.28;;
85133;SDS011;75590;42.690;23.356;2024-02-23T03:44:09;10.88;;;6.25;;
85133;SDS011;75590;42.690;23.356;2024-02-23T03:46:34;12.18;;;7.13;;
85133;SDS011;75590;42.690;23.356;2024-02-23T03:49:00;7.63;;;4.90;;
85133;SDS011;75590;42.690;23.356;2024-02-23T03:51:26;10.35;;;5.82;;
85133;SDS011;75590;42.690;23.356;2024-02-23T03:53:51;11.93;;;5.68;;
85133;SDS011;75590;42.690;23.356;2024-02-23T03:56:17;8.95;;;5.43;;
85133;SDS011;75590;42.690;23.356;2024-02-23T03:58:42;8.60;;;5.40;;
85133;SDS011;75590;42.690;23.356;2024-02-23T04:01:08;9.70;;;4.75;;
85133;SDS011;75590;42.690;23.356;2024-02-23T04:03:34;9.82;;;5.53;;
85133;SDS011;75590;42.690;23.356;2024-02-23T04:06:00;10.15;;;6.05;;
85133;SDS011;75590;42.690;23.356;2024-02-23T04:08:26;10.32;;;5.85;;
85133;SDS011;75590;42.690;23.356;2024-02-23T04:10:51;12.95;;;5.38;;
85133;SDS011;75590;42.690;23.356;2024-02-23T04:13:16;10.50;;;5.88;;
85133;SDS011;75590;42.690;23.356;2024-02-23T04:15:43;11.82;;;6.43;;
85133;SDS011;75590;42.690;23.356;2024-02-23T04:18:09;9.70;;;5.60;;
85133;SDS011;75590;42.690;23.356;2024-02-23T04:20:34;14.02;;;6.18;;
85133;SDS011;75590;42.690;23.356;2024-02-23T04:23:00;14.25;;;6.28;;
85133;SDS011;75590;42.690;23.356;2024-02-23T04:25:25;11.38;;;5.18;;
85133;SDS011;75590;42.690;23.356;2024-02-23T04:27:51;10.35;;;5.38;;
85133;SDS011;75590;42.690;23.356;2024-02-23T04:30:16;12.25;;;5.70;;
85133;SDS011;75590;42.690;23.356;2024-02-23T04:32:42;9.45;;;5.20;;
85133;SDS011;75590;42.690;23.356;2024-02-23T04:35:07;10.38;;;5.70;;
85133;SDS011;75590;42.690;23.356;2024-02-23T04:37:33;10.93;;;6.30;;
85133;SDS011;75590;42.690;23.356;2024-02-23T04:39:59;13.15;;;6.70;;
85133;SDS011;75590;42.690;23.356;2024-02-23T04:42:24;13.63;;;6.47;;
85133;SDS011;75590;42.690;23.356;2024-02-23T04:44:50;13.70;;;6.60;;
85133;SDS011;75590;42.690;23.356;2024-02-23T04:47:17;13.68;;;8.65;;
85133;SDS011;75590;42.690;23.356;2024-02-23T04:49:43;17.52;;;12.27;;
85133;SDS011;75590;42.690;23.356;2024-02-23T04:52:08;14.88;;;8.70;;
85133;SDS011;75590;42.690;23.356;2024-02-23T04:54:34;11.98;;;7.68;;
85133;SDS011;75590;42.690;23.356;2024-02-23T04:57:00;11.90;;;7.72;;
85133;SDS011;75590;42.690;23.356;2024-02-23T04:59:25;11.73;;;6.88;;
85133;SDS011;75590;42.690;23.356;2024-02-23T05:01:51;10.73;;;6.93;;
85133;SDS011;75590;42.690;23.356;2024-02-23T05:04:16;12.07;;;6.55;;
85133;SDS011;75590;42.690;23.356;2024-02-23T05:06:42;11.88;;;6.38;;
85133;SDS011;75590;42.690;23.356;2024-02-23T05:09:08;14.82;;;7.47;;
85133;SDS011;75590;42.690;23.356;2024-02-23T05:11:34;12.35;;;6.20;;
85133;SDS011;75590;42.690;23.356;2024-02-23T05:14:00;11.38;;;6.65;;
85133;SDS011;75590;42.690;23.356;2024-02-23T05:16:25;12.55;;;6.35;;
85133;SDS011;75590;42.690;23.356;2024-02-23T05:18:51;12.10;;;6.22;;
85133;SDS011;75590;42.690;23.356;2024-02-23T05:21:17;10.95;;;7.03;;
85133;SDS011;75590;42.690;23.356;2024-02-23T05:23:42;10.68;;;6.07;;
85133;SDS011;75590;42.690;23.356;2024-02-23T05:26:08;10.48;;;7.40;;
85133;SDS011;75590;42.690;23.356;2024-02-23T05:28:33;10.40;;;5.80;;
85133;SDS011;75590;42.690;23.356;2024-02-23T05:30:59;9.45;;;4.28;;
85133;SDS011;75590;42.690;23.356;2024-02-23T05:33:28;11.85;;;6.57;;
85133;SDS011;75590;42.690;23.356;2024-02-23T05:35:54;12.85;;;7.43;;
85133;SDS011;75590;42.690;23.356;2024-02-23T05:38:19;11.10;;;6.05;;
85133;SDS011;75590;42.690;23.356;2024-02-23T05:40:45;12.50;;;6.85;;
85133;SDS011;75590;42.690;23.356;2024-02-23T05:43:10;13.00;;;7.05;;
85133;SDS011;75590;42.690;23.356;2024-02-23T05:45:36;10.18;;;6.07;;
85133;SDS011;75590;42.690;23.356;2024-02-23T05:48:01;19.23;;;11.38;;
85133;SDS011;75590;42.690;23.356;2024-02-23T05:50:27;12.18;;;7.82;;
85133;SDS011;75590;42.690;23.356;2024-02-23T05:52:52;13.43;;;6.85;;
85133;SDS011;75590;42.690;23.356;2024-02-23T05:55:18;13.90;;;8.68;;
85133;SDS011;75590;42.690;23.356;2024-02-23T05:57:44;12.23;;;8.25;;
85133;SDS011;75590;42.690;23.356;2024-02-23T06:00:10;12.93;;;7.78;;
85133;SDS011;75590;42.690;23.356;2024-02-23T06:02:37;11.63;;;6.82;;
85133;SDS011;75590;42.690;23.356;2024-02-23T06:05:03;14.35;;;8.70;;
85133;SDS011;75590;42.690;23.356;2024-02-23T06:07:29;13.77;;;8.23;;
85133;SDS011;75590;42.690;23.356;2024-02-23T06:09:57;14.40;;;7.00;;
85133;SDS011;75590;42.690;23.356;2024-02-23T06:12:23;12.20;;;7.88;;
85133;SDS011;75590;42.690;23.356;2024-02-23T06:14:50;17.80;;;9.27;;
85133;SDS011;75590;42.690;23.356;2024-02-23T06:17:16;13.85;;;8.20;;
85133;SDS011;75590;42.690;23.356;2024-02-23T06:19:41;14.30;;;8.30;;
85133;SDS011;75590;42.690;23.356;2024-02-23T06:22:07;13.85;;;8.05;;
85133;SDS011;75590;42.690;23.356;2024-02-23T06:24:35;13.25;;;7.68;;
85133;SDS011;75590;42.690;23.356;2024-02-23T06:27:01;15.32;;;9.05;;
85133;SDS011;75590;42.690;23.356;2024-02-23T06:29:28;19.05;;;8.52;;
85133;SDS011;75590;42.690;23.356;2024-02-23T06:31:55;12.77;;;8.23;;
85133;SDS011;75590;42.690;23.356;2024-02-23T06:34:20;14.43;;;7.80;;
85133;SDS011;75590;42.690;23.356;2024-02-23T06:36:46;12.75;;;8.75;;
85133;SDS011;75590;42.690;23.356;2024-02-23T06:39:12;15.85;;;7.25;;
85133;SDS011;75590;42.690;23.356;2024-02-23T06:41:37;12.07;;;8.68;;
85133;SDS011;75590;42.690;23.356;2024-02-23T06:44:06;12.65;;;7.88;;
85133;SDS011;75590;42.690;23.356;2024-02-23T06:46:32;16.55;;;8.80;;
85133;SDS011;75590;42.690;23.356;2024-02-23T06:48:57;11.50;;;8.05;;
85133;SDS011;75590;42.690;23.356;2024-02-23T06:51:23;11.00;;;8.18;;
85133;SDS011;75590;42.690;23.356;2024-02-23T06:53:48;11.70;;;7.40;;
85133;SDS011;75590;42.690;23.356;2024-02-23T06:56:14;13.23;;;7.13;;
85133;SDS011;75590;42.690;23.356;2024-02-23T06:58:41;12.75;;;7.75;;
85133;SDS011;75590;42.690;23.356;2024-02-23T07:01:06;12.30;;;8.50;;
85133;SDS011;75590;42.690;23.356;2024-02-23T07:03:36;13.55;;;8.68;;
85133;SDS011;75590;42.690;23.356;2024-02-23T07:06:02;12.23;;;7.80;;
85133;SDS011;75590;42.690;23.356;2024-02-23T07:08:28;14.75;;;8.80;;
85133;SDS011;75590;42.690;23.356;2024-02-23T07:10:55;14.48;;;9.40;;
85133;SDS011;75590;42.690;23.356;2024-02-23T07:13:20;12.60;;;8.27;;
85133;SDS011;75590;42.690;23.356;2024-02-23T07:15:46;16.58;;;10.10;;
85133;SDS011;75590;42.690;23.356;2024-02-23T07:18:11;14.85;;;8.63;;
85133;SDS011;75590;42.690;23.356;2024-02-23T07:20:37;16.77;;;10.65;;
85133;SDS011;75590;42.690;23.356;2024-02-23T07:23:02;18.88;;;10.15;;
85133;SDS011;75590;42.690;23.356;2024-02-23T07:25:28;16.33;;;9.55;;
85133;SDS011;75590;42.690;23.356;2024-02-23T07:27:56;12.25;;;7.47;;
85133;SDS011;75590;42.690;23.356;2024-02-23T07:30:21;13.68;;;9.63;;
85133;SDS011;75590;42.690;23.356;2024-02-23T07:32:47;14.40;;;8.93;;
85133;SDS011;75590;42.690;23.356;2024-02-23T07:35:12;12.20;;;8.50;;
85133;SDS011;75590;42.690;23.356;2024-02-23T07:37:38;16.63;;;10.18;;
85133;SDS011;75590;42.690;23.356;2024-02-23T07:40:04;16.85;;;10.20;;
85133;SDS011;75590;42.690;23.356;2024-02-23T07:42:33;17.65;;;9.60;;
85133;SDS011;75590;42.690;23.356;2024-02-23T07:45:03;14.43;;;10.07;;
85133;SDS011;75590;42.690;23.356;2024-02-23T07:47:30;13.57;;;9.18;;
85133;SDS011;75590;42.690;23.356;2024-02-23T07:49:56;16.65;;;10.63;;
85133;SDS011;75590;42.690;23.356;2024-02-23T07:52:21;16.85;;;9.30;;
85133;SDS011;75590;42.690;23.356;2024-02-23T07:57:16;22.95;;;9.52;;
85133;SDS011;75590;42.690;23.356;2024-02-23T07:59:42;16.50;;;10.25;;
85133;SDS011;75590;42.690;23.356;2024-02-23T08:02:07;13.73;;;9.40;;
85133;SDS011;75590;42.690;23.356;2024-02-23T08:04:33;15.32;;;10.13;;
85133;SDS011;75590;42.690;23.356;2024-02-23T08:06:59;14.15;;;9.38;;
85133;SDS011;75590;42.690;23.356;2024-02-23T08:09:24;14.95;;;9.13;;
85133;SDS011;75590;42.690;23.356;2024-02-23T08:11:51;14.10;;;8.88;;
85133;SDS011;75590;42.690;23.356;2024-02-23T08:14:16;11.13;;;7.88;;
85133;SDS011;75590;42.690;23.356;2024-02-23T08:16:42;11.27;;;8.00;;
85133;SDS011;75590;42.690;23.356;2024-02-23T08:19:07;12.35;;;8.27;;
85133;SDS011;75590;42.690;23.356;2024-02-23T08:21:33;13.15;;;8.95;;
85133;SDS011;75590;42.690;23.356;2024-02-23T08:23:59;15.32;;;10.05;;
85133;SDS011;75590;42.690;23.356;2024-02-23T08:26:24;10.43;;;7.38;;
85133;SDS011;75590;42.690;23.356;2024-02-23T08:28:50;13.35;;;10.82;;
85133;SDS011;75590;42.690;23.356;2024-02-23T08:31:15;13.35;;;9.30;;
85133;SDS011;75590;42.690;23.356;2024-02-23T08:33:41;12.73;;;8.45;;
85133;SDS011;75590;42.690;23.356;2024-02-23T08:36:07;12.18;;;8.73;;
85133;SDS011;75590;42.690;23.356;2024-02-23T08:38:33;13.45;;;8.82;;
85133;SDS011;75590;42.690;23.356;2024-02-23T08:40:59;12.27;;;8.35;;
85133;SDS011;75590;42.690;23.356;2024-02-23T08:43:24;15.25;;;9.90;;
85133;SDS011;75590;42.690;23.356;2024-02-23T08:45:51;12.80;;;7.45;;
85133;SDS011;75590;42.690;23.356;2024-02-23T08:48:19;9.50;;;6.13;;
85133;SDS011;75590;42.690;23.356;2024-02-23T08:50:44;11.13;;;7.45;;
85133;SDS011;75590;42.690;23.356;2024-02-23T08:53:11;11.70;;;7.90;;
85133;SDS011;75590;42.690;23.356;2024-02-23T08:55:36;8.35;;;5.95;;
85133;SDS011;75590;42.690;23.356;2024-02-23T08:58:02;11.55;;;7.10;;
85133;SDS011;75590;42.690;23.356;2024-02-23T09:00:27;9.55;;;6.80;;
85133;SDS011;75590;42.690;23.356;2024-02-23T09:02:53;11.90;;;8.55;;
85133;SDS011;75590;42.690;23.356;2024-02-23T09:05:20;10.85;;;7.47;;
85133;SDS011;75590;42.690;23.356;2024-02-23T09:07:46;11.35;;;7.30;;
85133;SDS011;75590;42.690;23.356;2024-02-23T09:10:11;11.00;;;7.22;;
85133;SDS011;75590;42.690;23.356;2024-02-23T09:12:37;11.60;;;6.70;;
85133;SDS011;75590;42.690;23.356;2024-02-23T09:15:03;9.77;;;6.90;;
85133;SDS011;75590;42.690;23.356;2024-02-23T09:17:30;9.13;;;6.68;;
85133;SDS011;75590;42.690;23.356;2024-02-23T09:19:55;8.95;;;6.63;;
85133;SDS011;75590;42.690;23.356;2024-02-23T09:22:21;8.02;;;5.35;;
85133;SDS011;75590;42.690;23.356;2024-02-23T09:24:47;11.23;;;6.03;;
85133;SDS011;75590;42.690;23.356;2024-02-23T09:27:13;9.23;;;6.90;;
85133;SDS011;75590;42.690;23.356;2024-02-23T09:29:40;10.63;;;5.90;;
85133;SDS011;75590;42.690;23.356;2024-02-23T09:32:07;8.57;;;5.97;;
85133;SDS011;75590;42.690;23.356;2024-02-23T09:34:32;9.82;;;4.70;;
85133;SDS011;75590;42.690;23.356;2024-02-23T09:36:58;5.55;;;4.10;;
85133;SDS011;75590;42.690;23.356;2024-02-23T09:39:23;6.75;;;4.70;;
85133;SDS011;75590;42.690;23.356;2024-02-23T09:41:51;6.82;;;3.83;;
85133;SDS011;75590;42.690;23.356;2024-02-23T09:44:17;7.25;;;4.53;;
85133;SDS011;75590;42.690;23.356;2024-02-23T09:46:43;7.55;;;4.95;;
85133;SDS011;75590;42.690;23.356;2024-02-23T09:49:09;7.50;;;4.40;;
85133;SDS011;75590;42.690;23.356;2024-02-23T09:51:36;7.55;;;4.65;;
85133;SDS011;75590;42.690;23.356;2024-02-23T09:54:04;7.40;;;4.32;;
85133;SDS011;75590;42.690;23.356;2024-02-23T09:56:30;4.68;;;3.35;;
85133;SDS011;75590;42.690;23.356;2024-02-23T09:58:56;5.18;;;3.75;;
85133;SDS011;75590;42.690;23.356;2024-02-23T10:01:27;6.03;;;3.97;;
85133;SDS011;75590;42.690;23.356;2024-02-23T10:03:56;6.25;;;5.07;;
85133;SDS011;75590;42.690;23.356;2024-02-23T10:06:25;6.53;;;4.15;;
85133;SDS011;75590;42.690;23.356;2024-02-23T10:08:51;3.42;;;2.60;;
85133;SDS011;75590;42.690;23.356;2024-02-23T10:11:20;3.90;;;2.97;;
85133;SDS011;75590;42.690;23.356;2024-02-23T10:13:47;4.20;;;3.42;;
85133;SDS011;75590;42.690;23.356;2024-02-23T10:16:19;4.63;;;2.92;;
85133;SDS011;75590;42.690;23.356;2024-02-23T10:18:46;5.82;;;3.83;;
85133;SDS011;75590;42.690;23.356;2024-02-23T10:21:13;4.55;;;2.90;;
85133;SDS011;75590;42.690;23.356;2024-02-23T10:23:39;3.92;;;3.33;;
85133;SDS011;75590;42.690;23.356;2024-02-23T10:26:07;5.82;;;3.63;;
85133;SDS011;75590;42.690;23.356;2024-02-23T10:28:34;6.88;;;3.38;;
85133;SDS011;75590;42.690;23.356;2024-02-23T10:31:05;4.72;;;3.92;;
85133;SDS011;75590;42.690;23.356;2024-02-23T10:33:31;5.00;;;3.20;;
85133;SDS011;75590;42.690;23.356;2024-02-23T10:35:57;6.22;;;3.35;;
85133;SDS011;75590;42.690;23.356;2024-02-23T10:38:26;6.32;;;3.22;;
85133;SDS011;75590;42.690;23.356;2024-02-23T10:40:54;5.45;;;4.00;;
85133;SDS011;75590;42.690;23.356;2024-02-23T10:43:22;4.47;;;2.67;;
85133;SDS011;75590;42.690;23.356;2024-02-23T10:45:59;3.97;;;2.80;;
85133;SDS011;75590;42.690;23.356;2024-02-23T10:48:27;4.72;;;2.67;;
85133;SDS011;75590;42.690;23.356;2024-02-23T10:50:53;4.20;;;2.70;;
85133;SDS011;75590;42.690;23.356;2024-02-23T10:53:20;3.10;;;2.70;;
85133;SDS011;75590;42.690;23.356;2024-02-23T10:56:05;2.40;;;2.17;;
85133;SDS011;75590;42.690;23.356;2024-02-23T10:58:32;3.15;;;1.92;;
85133;SDS011;75590;42.690;23.356;2024-02-23T11:01:01;2.97;;;1.55;;
85133;SDS011;75590;42.690;23.356;2024-02-23T11:03:31;2.55;;;2.35;;
85133;SDS011;75590;42.690;23.356;2024-02-23T11:05:59;3.15;;;1.83;;
85133;SDS011;75590;42.690;23.356;2024-02-23T11:08:28;2.70;;;1.73;;
85133;SDS011;75590;42.690;23.356;2024-02-23T11:10:54;1.98;;;1.85;;
85133;SDS011;75590;42.690;23.356;2024-02-23T11:13:38;2.53;;;1.85;;
85133;SDS011;75590;42.690;23.356;2024-02-23T11:16:04;3.35;;;2.22;;
85133;SDS011;75590;42.690;23.356;2024-02-23T11:18:34;3.45;;;2.28;;
85133;SDS011;75590;42.690;23.356;2024-02-23T11:21:01;2.42;;;1.85;;
85133;SDS011;75590;42.690;23.356;2024-02-23T11:23:42;2.05;;;1.85;;
85133;SDS011;75590;42.690;23.356;2024-02-23T11:26:14;2.60;;;2.00;;
85133;SDS011;75590;42.690;23.356;2024-02-23T11:28:49;2.15;;;1.80;;
85133;SDS011;75590;42.690;23.356;2024-02-23T11:31:22;2.53;;;2.00;;
85133;SDS011;75590;42.690;23.356;2024-02-23T11:33:52;4.43;;;1.52;;
85133;SDS011;75590;42.690;23.356;2024-02-23T11:36:29;1.80;;;1.70;;
85133;SDS011;75590;42.690;23.356;2024-02-23T11:38:56;2.47;;;1.95;;
85133;SDS011;75590;42.690;23.356;2024-02-23T11:41:22;2.10;;;1.90;;
85133;SDS011;75590;42.690;23.356;2024-02-23T11:43:51;2.22;;;1.60;;
85133;SDS011;75590;42.690;23.356;2024-02-23T11:46:17;2.35;;;1.75;;
85133;SDS011;75590;42.690;23.356;2024-02-23T11:48:44;2.42;;;1.63;;
85133;SDS011;75590;42.690;23.356;2024-02-23T11:51:15;2.53;;;1.80;;
85133;SDS011;75590;42.690;23.356;2024-02-23T11:53:40;1.83;;;1.58;;
85133;SDS011;75590;42.690;23.356;2024-02-23T11:56:07;1.88;;;1.50;;
85133;SDS011;75590;42.690;23.356;2024-02-23T11:58:33;1.70;;;1.60;;
85133;SDS011;75590;42.690;23.356;2024-02-23T12:00:59;2.15;;;1.58;;
85133;SDS011;75590;42.690;23.356;2024-02-23T12:03:27;1.98;;;1.83;;
85133;SDS011;75590;42.690;23.356;2024-02-23T12:05:58;2.20;;;2.00;;
85133;SDS011;75590;42.690;23.356;2024-02-23T12:08:27;1.60;;;1.50;;
85133;SDS011;75590;42.690;23.356;2024-02-23T12:10:55;2.00;;;1.80;;
85133;SDS011;75590;42.690;23.356;2024-02-23T12:13:21;2.40;;;1.70;;
85133;SDS011;75590;42.690;23.356;2024-02-23T12:15:47;3.28;;;1.45;;
85133;SDS011;75590;42.690;23.356;2024-02-23T12:18:14;1.92;;;1.65;;
85133;SDS011;75590;42.690;23.356;2024-02-23T12:20:42;2.15;;;1.58;;
85133;SDS011;75590;42.690;23.356;2024-02-23T12:23:08;1.77;;;1.45;;
85133;SDS011;75590;42.690;23.356;2024-02-23T12:25:35;2.97;;;1.90;;
85133;SDS011;75590;42.690;23.356;2024-02-23T12:28:01;2.05;;;1.83;;
85133;SDS011;75590;42.690;23.356;2024-02-23T12:30:27;1.92;;;1.73;;
85133;SDS011;75590;42.690;23.356;2024-02-23T12:33:04;2.53;;;1.70;;
85133;SDS011;75590;42.690;23.356;2024-02-23T12:35:30;1.55;;;1.23;;
85133;SDS011;75590;42.690;23.356;2024-02-23T12:37:55;2.97;;;1.33;;
85133;SDS011;75590;42.690;23.356;2024-02-23T12:40:21;1.55;;;1.45;;
85133;SDS011;75590;42.690;23.356;2024-02-23T12:42:48;1.70;;;1.42;;
85133;SDS011;75590;42.690;23.356;2024-02-23T12:45:14;2.08;;;1.92;;
85133;SDS011;75590;42.690;23.356;2024-02-23T12:47:39;2.05;;;1.83;;
85133;SDS011;75590;42.690;23.356;2024-02-23T12:50:07;3.60;;;2.03;;
85133;SDS011;75590;42.690;23.356;2024-02-23T12:52:35;7.70;;;2.67;;
85133;SDS011;75590;42.690;23.356;2024-02-23T12:55:01;2.17;;;1.77;;
85133;SDS011;75590;42.690;23.356;2024-02-23T12:57:26;2.25;;;1.52;;
85133;SDS011;75590;42.690;23.356;2024-02-23T12:59:52;2.38;;;1.90;;
85133;SDS011;75590;42.690;23.356;2024-02-23T13:02:19;3.15;;;1.98;;
85133;SDS011;75590;42.690;23.356;2024-02-23T13:04:45;2.65;;;1.60;;
85133;SDS011;75590;42.690;23.356;2024-02-23T13:07:14;3.50;;;1.60;;
85133;SDS011;75590;42.690;23.356;2024-02-23T13:09:41;2.22;;;1.52;;
85133;SDS011;75590;42.690;23.356;2024-02-23T13:12:08;9.20;;;2.78;;
85133;SDS011;75590;42.690;23.356;2024-02-23T13:14:34;2.13;;;1.60;;
85133;SDS011;75590;42.690;23.356;2024-02-23T13:16:59;2.03;;;1.50;;
85133;SDS011;75590;42.690;23.356;2024-02-23T13:19:25;1.77;;;1.40;;
85133;SDS011;75590;42.690;23.356;2024-02-23T13:21:51;2.85;;;1.40;;
85133;SDS011;75590;42.690;23.356;2024-02-23T13:24:16;3.05;;;1.52;;
85133;SDS011;75590;42.690;23.356;2024-02-23T13:26:42;2.25;;;2.05;;
85133;SDS011;75590;42.690;23.356;2024-02-23T13:29:07;2.83;;;1.98;;
85133;SDS011;75590;42.690;23.356;2024-02-23T13:31:33;2.15;;;2.00;;
85133;SDS011;75590;42.690;23.356;2024-02-23T13:33:58;2.65;;;1.70;;
85133;SDS011;75590;42.690;23.356;2024-02-23T13:36:24;2.08;;;1.55;;
85133;SDS011;75590;42.690;23.356;2024-02-23T13:38:50;2.90;;;1.55;;
85133;SDS011;75590;42.690;23.356;2024-02-23T13:41:16;2.63;;;1.73;;
85133;SDS011;75590;42.690;23.356;2024-02-23T13:43:43;2.80;;;1.65;;
85133;SDS011;75590;42.690;23.356;2024-02-23T13:46:08;1.98;;;1.40;;
85133;SDS011;75590;42.690;23.356;2024-02-23T13:48:35;2.33;;;1.38;;
85133;SDS011;75590;42.690;23.356;2024-02-23T13:51:01;2.97;;;2.05;;
85133;SDS011;75590;42.690;23.356;2024-02-23T13:53:29;2.38;;;1.60;;
85133;SDS011;75590;42.690;23.356;2024-02-23T13:55:56;3.00;;;2.35;;
85133;SDS011;75590;42.690;23.356;2024-02-23T13:58:22;3.30;;;1.75;;
85133;SDS011;75590;42.690;23.356;2024-02-23T14:00:47;4.70;;;2.10;;
85133;SDS011;75590;42.690;23.356;2024-02-23T14:03:17;2.05;;;1.30;;
85133;SDS011;75590;42.690;23.356;2024-02-23T14:05:43;1.92;;;1.73;;
85133;SDS011;75590;42.690;23.356;2024-02-23T14:08:10;3.28;;;1.75;;
85133;SDS011;75590;42.690;23.356;2024-02-23T14:10:36;3.30;;;1.95;;
85133;SDS011;75590;42.690;23.356;2024-02-23T14:13:01;1.70;;;1.50;;
85133;SDS011;75590;42.690;23.356;2024-02-23T14:15:27;2.15;;;1.60;;
85133;SDS011;75590;42.690;23.356;2024-02-23T14:17:52;2.15;;;1.88;;
85133;SDS011;75590;42.690;23.356;2024-02-23T14:20:18;2.10;;;1.60;;
85133;SDS011;75590;42.690;23.356;2024-02-23T14:22:44;1.60;;;1.13;;
85133;SDS011;75590;42.690;23.356;2024-02-23T14:25:10;2.25;;;1.65;;